Terminal Aerodrome Forecast
Issued by NWS Cleveland, OH

Home | Current Version | Previous Version | Graphics & Text | Print | Product List | Glossary On
Versions: 1 2 3 4 5 6 7 8 9 10 11 12 13 14 15 16 17 18 19 20 21 22 23 24 25 26
000
FTUS41 KCLE 010500
TAFMFD
TAF
KMFD 010520Z 0106/0206 15005KT 4SM -SN SCT015 OVC035
      TEMPO 0106/0108 2SM -SN OVC015
     FM010800 10003KT 1 1/2SM -SN OVC012
     FM011100 17005KT 3/4SM -SN OVC008
     FM011400 22007KT 1/2SM SN FZFG OVC006
     FM011800 24005KT 1 1/2SM -SN OVC010
     FM020000 26008KT 4SM -SN BR OVC015=

USA.gov is the U.S. government's official web portal to all federal, state and local government web resources and services.